Time;durP1;ratioP1;P1;durP2;ratioP2;P2;SDS_P1;SDS_P2;PMS_P1;PMS_P2;Temp;Humidity;BMP_temperature;BMP_pressure;BME280_temperature;BME280_humidity;BME280_pressure;Samples;Min_cycle;Max_cycle;Signal;HPM_P1;HPM_P2
2023/07/09 00:01:48;;;;;;;8.50;4.80;;;;;;;;;;5033989;28;20030;-73
2023/07/09 00:04:14;;;;;;;12.52;4.97;;;;;;;;;;5020361;28;20040;-74
2023/07/09 00:06:40;;;;;;;13.52;5.07;;;;;;;;;;5055347;28;20053;-74
2023/07/09 00:09:13;;;;;;;11.60;5.13;;;;;;;;;;5037716;28;20029;-74
2023/07/09 00:11:39;;;;;;;9.15;4.85;;;;;;;;;;5051523;28;20556;-73
2023/07/09 00:14:06;;;;;;;10.77;4.88;;;;;;;;;;5052387;28;20033;-74
2023/07/09 00:16:31;;;;;;;7.32;4.95;;;;;;;;;;5056639;28;20045;-74
2023/07/09 00:18:56;;;;;;;11.10;5.50;;;;;;;;;;5043188;28;20035;-74
2023/07/09 00:21:22;;;;;;;11.63;6.40;;;;;;;;;;5054032;28;20044;-74
2023/07/09 00:23:48;;;;;;;11.63;5.95;;;;;;;;;;5044574;28;20486;-74
2023/07/09 00:26:15;;;;;;;11.68;5.68;;;;;;;;;;5050400;28;20037;-74
2023/07/09 00:28:42;;;;;;;12.55;5.55;;;;;;;;;;5051277;28;20418;-74
2023/07/09 00:31:16;;;;;;;12.15;6.35;;;;;;;;;;5057470;28;20045;-73
2023/07/09 00:33:42;;;;;;;12.55;5.70;;;;;;;;;;5039881;28;20020;-74
2023/07/09 00:36:15;;;;;;;14.48;6.43;;;;;;;;;;5055691;28;20045;-73
2023/07/09 00:38:41;;;;;;;17.33;5.55;;;;;;;;;;5055638;28;20029;-74
2023/07/09 00:41:17;;;;;;;12.40;6.15;;;;;;;;;;5037267;28;20105;-74
2023/07/09 00:43:43;;;;;;;10.30;5.70;;;;;;;;;;5041035;28;20025;-73
2023/07/09 00:46:26;;;;;;;9.65;6.03;;;;;;;;;;5053575;28;20072;-73
2023/07/09 00:49:07;;;;;;;13.25;5.55;;;;;;;;;;5055522;28;20040;-74
2023/07/09 00:51:41;;;;;;;15.40;6.23;;;;;;;;;;5037428;28;20041;-74
2023/07/09 00:54:14;;;;;;;8.45;5.28;;;;;;;;;;5050650;28;20521;-73
2023/07/09 00:56:45;;;;;;;10.73;5.40;;;;;;;;;;5039941;28;20033;-74
2023/07/09 00:59:18;;;;;;;10.15;5.13;;;;;;;;;;5049852;28;20462;-73
2023/07/09 01:01:47;;;;;;;12.27;5.80;;;;;;;;;;5035284;28;20033;-74
2023/07/09 01:04:13;;;;;;;8.93;5.05;;;;;;;;;;5057683;28;20025;-74
2023/07/09 01:06:52;;;;;;;15.23;5.95;;;;;;;;;;5052544;28;20037;-74
2023/07/09 01:09:18;;;;;;;14.55;5.35;;;;;;;;;;5051596;28;20440;-74
2023/07/09 01:11:44;;;;;;;9.73;5.20;;;;;;;;;;5008763;28;20395;-73
2023/07/09 01:14:12;;;;;;;17.60;5.20;;;;;;;;;;5023953;28;20054;-73
2023/07/09 01:16:42;;;;;;;6.45;4.70;;;;;;;;;;5039587;28;20132;-73
2023/07/09 01:19:09;;;;;;;10.20;4.90;;;;;;;;;;5038060;28;20057;-73
2023/07/09 01:21:35;;;;;;;9.50;4.97;;;;;;;;;;5053863;28;20052;-74
2023/07/09 01:24:26;;;;;;;9.75;4.90;;;;;;;;;;5023268;28;20554;-74
2023/07/09 01:26:52;;;;;;;8.10;5.10;;;;;;;;;;5043470;28;20033;-74
2023/07/09 01:29:17;;;;;;;7.90;4.97;;;;;;;;;;5055001;28;20528;-74
2023/07/09 01:31:43;;;;;;;8.60;4.63;;;;;;;;;;5060358;28;20078;-73
2023/07/09 01:34:08;;;;;;;7.20;5.03;;;;;;;;;;5039421;28;20386;-73
2023/07/09 01:36:34;;;;;;;11.35;5.45;;;;;;;;;;5040217;28;20127;-73
2023/07/09 01:39:00;;;;;;;6.65;4.55;;;;;;;;;;5031930;28;20041;-73
2023/07/09 01:41:26;;;;;;;6.22;4.22;;;;;;;;;;5055632;28;20044;-74
2023/07/09 01:43:53;;;;;;;6.75;4.55;;;;;;;;;;5048432;28;20509;-74
2023/07/09 01:46:18;;;;;;;6.43;4.18;;;;;;;;;;5055150;28;20044;-74
2023/07/09 01:48:44;;;;;;;9.38;4.55;;;;;;;;;;5039131;28;20777;-74
2023/07/09 01:51:12;;;;;;;4.88;4.10;;;;;;;;;;5033968;28;20033;-73
2023/07/09 01:53:38;;;;;;;7.63;4.82;;;;;;;;;;5037349;28;20030;-74
2023/07/09 01:56:07;;;;;;;9.75;4.47;;;;;;;;;;5043949;28;20041;-74
2023/07/09 01:58:32;;;;;;;5.45;4.90;;;;;;;;;;5054072;28;20029;-74
2023/07/09 02:00:59;;;;;;;11.43;4.63;;;;;;;;;;5053976;28;20082;-73
2023/07/09 02:03:24;;;;;;;5.43;3.80;;;;;;;;;;5061199;28;20025;-74
2023/07/09 02:05:52;;;;;;;5.82;4.35;;;;;;;;;;5015331;28;20048;-75
2023/07/09 02:08:18;;;;;;;9.50;4.38;;;;;;;;;;5038663;28;20368;-73
2023/07/09 02:10:45;;;;;;;9.38;4.75;;;;;;;;;;5038422;28;20037;-73
2023/07/09 02:13:11;;;;;;;7.35;4.47;;;;;;;;;;5054755;28;20056;-74
2023/07/09 02:15:36;;;;;;;6.30;4.20;;;;;;;;;;5049887;28;20076;-74
2023/07/09 02:18:02;;;;;;;8.57;4.30;;;;;;;;;;5019908;28;20040;-73
2023/07/09 02:20:28;;;;;;;8.98;4.78;;;;;;;;;;5048561;28;20455;-74
2023/07/09 02:22:53;;;;;;;7.28;4.45;;;;;;;;;;5045821;28;20028;-74
2023/07/09 02:25:19;;;;;;;7.28;5.10;;;;;;;;;;5037496;28;20026;-74
2023/07/09 02:27:44;;;;;;;15.10;4.53;;;;;;;;;;5028871;28;20024;-73
2023/07/09 02:30:10;;;;;;;5.38;4.28;;;;;;;;;;5037907;28;20033;-73
2023/07/09 02:32:36;;;;;;;7.90;4.90;;;;;;;;;;5038383;28;20031;-74
2023/07/09 02:35:02;;;;;;;11.25;4.40;;;;;;;;;;5020245;28;20033;-73
2023/07/09 02:37:28;;;;;;;6.35;4.57;;;;;;;;;;5033132;28;20037;-73
2023/07/09 02:39:54;;;;;;;17.30;4.80;;;;;;;;;;5046976;28;20031;-72
2023/07/09 02:42:21;;;;;;;8.55;4.45;;;;;;;;;;5036287;28;20037;-73
2023/07/09 02:44:46;;;;;;;13.23;5.10;;;;;;;;;;5053472;28;20033;-73
2023/07/09 02:47:13;;;;;;;6.57;4.70;;;;;;;;;;5047999;28;20124;-73
2023/07/09 02:49:39;;;;;;;7.05;4.18;;;;;;;;;;5042497;28;20024;-74
2023/07/09 02:52:05;;;;;;;6.20;4.28;;;;;;;;;;5053617;28;20056;-74
2023/07/09 02:54:31;;;;;;;5.28;4.45;;;;;;;;;;5052139;28;20440;-73
2023/07/09 02:56:56;;;;;;;9.20;4.38;;;;;;;;;;5038076;28;20064;-74
2023/07/09 02:59:22;;;;;;;6.65;4.82;;;;;;;;;;5037382;28;20162;-74
2023/07/09 03:01:49;;;;;;;6.80;4.47;;;;;;;;;;5054763;28;20037;-74
2023/07/09 03:04:15;;;;;;;8.00;4.47;;;;;;;;;;5055620;28;20021;-74
2023/07/09 03:06:41;;;;;;;11.30;4.43;;;;;;;;;;5031319;28;20045;-73
2023/07/09 03:09:06;;;;;;;8.35;4.50;;;;;;;;;;5053815;28;20531;-74
2023/07/09 03:11:34;;;;;;;7.60;4.57;;;;;;;;;;5026343;28;20048;-74
2023/07/09 03:14:00;;;;;;;11.07;4.07;;;;;;;;;;5054013;28;20066;-74
2023/07/09 03:16:27;;;;;;;6.68;4.70;;;;;;;;;;5052942;28;20079;-73
2023/07/09 03:18:54;;;;;;;6.13;4.03;;;;;;;;;;5040150;28;20033;-74
2023/07/09 03:21:20;;;;;;;8.10;4.32;;;;;;;;;;5041014;28;20037;-72
2023/07/09 03:23:45;;;;;;;5.70;4.63;;;;;;;;;;5038302;28;20108;-73
2023/07/09 03:26:11;;;;;;;10.48;4.68;;;;;;;;;;5050667;28;20063;-73
2023/07/09 03:28:36;;;;;;;8.50;4.32;;;;;;;;;;5040483;28;20376;-73
2023/07/09 03:31:02;;;;;;;9.60;4.45;;;;;;;;;;5041955;28;20037;-72
2023/07/09 03:33:27;;;;;;;6.00;3.95;;;;;;;;;;5038201;28;20025;-73
2023/07/09 03:35:53;;;;;;;7.20;4.13;;;;;;;;;;5051010;28;20079;-73
2023/07/09 03:38:19;;;;;;;7.78;4.60;;;;;;;;;;5058747;28;20082;-72
2023/07/09 03:40:45;;;;;;;7.57;4.47;;;;;;;;;;5055869;28;20037;-72
2023/07/09 03:43:10;;;;;;;4.88;3.80;;;;;;;;;;5021852;28;20552;-73
2023/07/09 03:45:37;;;;;;;7.00;4.32;;;;;;;;;;5022375;28;20039;-73
2023/07/09 03:48:04;;;;;;;9.05;4.40;;;;;;;;;;5040351;28;20029;-72
2023/07/09 03:50:30;;;;;;;6.25;4.70;;;;;;;;;;5044518;28;20063;-72
2023/07/09 03:52:55;;;;;;;6.75;4.18;;;;;;;;;;5019617;28;20025;-73
2023/07/09 03:55:21;;;;;;;9.75;4.72;;;;;;;;;;5054423;28;20414;-72
2023/07/09 03:57:47;;;;;;;5.15;4.47;;;;;;;;;;5034224;28;20025;-72
2023/07/09 04:00:14;;;;;;;8.02;4.18;;;;;;;;;;5048727;28;20047;-72
2023/07/09 04:02:40;;;;;;;6.18;3.58;;;;;;;;;;5027175;28;20471;-72
2023/07/09 04:05:08;;;;;;;12.98;4.88;;;;;;;;;;5039639;28;20064;-72
2023/07/09 04:07:34;;;;;;;9.63;4.68;;;;;;;;;;5035455;28;20056;-73
2023/07/09 04:10:00;;;;;;;10.57;4.60;;;;;;;;;;5021446;28;20072;-72
2023/07/09 04:12:26;;;;;;;4.43;4.03;;;;;;;;;;5044478;28;20493;-73
2023/07/09 04:14:51;;;;;;;6.40;4.25;;;;;;;;;;5038699;28;20013;-74
2023/07/09 04:17:17;;;;;;;8.07;4.40;;;;;;;;;;5035558;28;20041;-73
2023/07/09 04:19:42;;;;;;;13.32;5.07;;;;;;;;;;5057429;28;20562;-74
2023/07/09 04:22:10;;;;;;;8.55;4.53;;;;;;;;;;5032801;28;20619;-73
2023/07/09 04:24:35;;;;;;;6.85;4.65;;;;;;;;;;5038095;28;20029;-73
2023/07/09 04:27:03;;;;;;;8.95;4.47;;;;;;;;;;5036287;28;20029;-73
2023/07/09 04:29:35;;;;;;;8.73;4.30;;;;;;;;;;5056021;28;20021;-73
2023/07/09 04:32:05;;;;;;;5.97;4.30;;;;;;;;;;5053454;28;20120;-73
2023/07/09 04:34:30;;;;;;;10.75;4.93;;;;;;;;;;5047565;28;20055;-72
2023/07/09 04:36:56;;;;;;;8.90;4.35;;;;;;;;;;5049699;28;20049;-72
2023/07/09 04:39:21;;;;;;;9.02;4.38;;;;;;;;;;5042903;28;20028;-72
2023/07/09 04:41:47;;;;;;;7.82;4.35;;;;;;;;;;5031571;28;20033;-72
2023/07/09 04:44:13;;;;;;;6.20;4.15;;;;;;;;;;5066327;28;20032;-72
2023/07/09 04:46:39;;;;;;;6.43;4.22;;;;;;;;;;5053562;28;20079;-72
2023/07/09 04:49:04;;;;;;;5.85;4.35;;;;;;;;;;5012175;28;20025;-72
2023/07/09 04:51:30;;;;;;;9.95;4.55;;;;;;;;;;5049272;28;20043;-72
2023/07/09 04:53:55;;;;;;;6.68;4.60;;;;;;;;;;5046963;28;20025;-72
2023/07/09 04:56:21;;;;;;;11.63;4.82;;;;;;;;;;5044777;28;20041;-73
2023/07/09 04:58:46;;;;;;;12.07;5.45;;;;;;;;;;5041560;28;20023;-71
2023/07/09 05:01:11;;;;;;;32.30;8.40;;;;;;;;;;5015787;28;20102;-72
2023/07/09 05:03:38;;;;;;;24.60;6.88;;;;;;;;;;5026550;28;20040;-73
2023/07/09 05:06:04;;;;;;;48.35;9.82;;;;;;;;;;5047005;28;20037;-71
2023/07/09 05:08:29;;;;;;;52.15;8.63;;;;;;;;;;5048377;28;20513;-72
2023/07/09 05:10:57;;;;;;;17.20;5.18;;;;;;;;;;5038682;28;20033;-72
2023/07/09 05:13:22;;;;;;;11.90;4.97;;;;;;;;;;5054841;28;20029;-73
2023/07/09 05:15:49;;;;;;;6.45;5.05;;;;;;;;;;5037446;28;20132;-73
2023/07/09 05:18:16;;;;;;;6.90;4.25;;;;;;;;;;5058221;28;20104;-72
2023/07/09 05:20:42;;;;;;;6.68;4.40;;;;;;;;;;5051643;28;20063;-73
2023/07/09 05:23:11;;;;;;;7.80;4.20;;;;;;;;;;5038751;28;20033;-73
2023/07/09 05:25:37;;;;;;;7.57;4.00;;;;;;;;;;5031603;28;20041;-72
2023/07/09 05:28:03;;;;;;;6.93;4.70;;;;;;;;;;5054330;28;20036;-73
2023/07/09 05:30:28;;;;;;;7.90;4.38;;;;;;;;;;5047261;28;20044;-73
2023/07/09 05:32:57;;;;;;;9.55;4.88;;;;;;;;;;5056650;28;20047;-73
2023/07/09 05:35:25;;;;;;;10.52;4.05;;;;;;;;;;5054743;28;20045;-72
2023/07/09 05:37:50;;;;;;;11.25;4.20;;;;;;;;;;5055110;28;20094;-72
2023/07/09 05:40:16;;;;;;;16.23;4.72;;;;;;;;;;5020881;28;20037;-73
2023/07/09 05:42:41;;;;;;;9.40;4.80;;;;;;;;;;5036771;28;20028;-74
2023/07/09 05:45:07;;;;;;;5.05;4.25;;;;;;;;;;5055385;28;20070;-74
2023/07/09 05:47:33;;;;;;;6.47;4.07;;;;;;;;;;5047927;28;20143;-75
2023/07/09 05:49:58;;;;;;;8.38;4.70;;;;;;;;;;5055927;28;20062;-73
2023/07/09 05:52:24;;;;;;;7.57;4.88;;;;;;;;;;5048133;28;20021;-75
2023/07/09 05:54:50;;;;;;;7.07;4.32;;;;;;;;;;5033742;28;20026;-75
2023/07/09 05:57:16;;;;;;;6.57;4.47;;;;;;;;;;5024664;28;20124;-75
2023/07/09 05:59:41;;;;;;;7.38;4.05;;;;;;;;;;5024808;28;20071;-76
2023/07/09 06:02:14;;;;;;;15.68;4.95;;;;;;;;;;5030650;28;20066;-76
2023/07/09 06:04:41;;;;;;;5.22;4.05;;;;;;;;;;5053091;28;20013;-74
2023/07/09 06:07:07;;;;;;;7.35;4.70;;;;;;;;;;5036927;28;20080;-77
2023/07/09 06:09:33;;;;;;;9.65;4.07;;;;;;;;;;5052527;28;20059;-75
2023/07/09 06:11:58;;;;;;;8.05;4.07;;;;;;;;;;5045216;28;20033;-75
2023/07/09 06:14:24;;;;;;;6.05;4.07;;;;;;;;;;5036178;28;20108;-76
2023/07/09 06:16:50;;;;;;;6.70;4.53;;;;;;;;;;5052308;28;20506;-76
2023/07/09 06:19:15;;;;;;;10.52;4.57;;;;;;;;;;5032277;28;20136;-76
2023/07/09 06:21:40;;;;;;;6.20;4.05;;;;;;;;;;5014128;28;20030;-75
2023/07/09 06:24:08;;;;;;;9.45;4.82;;;;;;;;;;5037257;28;20048;-76
2023/07/09 06:26:33;;;;;;;6.07;4.43;;;;;;;;;;5028599;28;20036;-76
2023/07/09 06:28:59;;;;;;;7.32;4.30;;;;;;;;;;5028001;28;20086;-75
2023/07/09 06:31:24;;;;;;;7.32;5.00;;;;;;;;;;5052251;28;20847;-75
2023/07/09 06:33:50;;;;;;;11.30;4.60;;;;;;;;;;5037888;28;20039;-75
2023/07/09 06:36:17;;;;;;;8.18;4.65;;;;;;;;;;5020695;28;20277;-74
2023/07/09 06:38:44;;;;;;;11.10;4.50;;;;;;;;;;5018263;28;20060;-75
2023/07/09 06:41:10;;;;;;;8.68;4.55;;;;;;;;;;5019429;28;20056;-75
2023/07/09 06:43:38;;;;;;;4.55;4.15;;;;;;;;;;5039773;28;20032;-75
2023/07/09 06:46:05;;;;;;;5.28;4.20;;;;;;;;;;5040300;28;20094;-74
2023/07/09 06:48:31;;;;;;;6.55;4.25;;;;;;;;;;5033943;28;20032;-75
2023/07/09 06:50:57;;;;;;;7.82;4.50;;;;;;;;;;5035978;28;20040;-75
2023/07/09 06:53:23;;;;;;;8.35;4.32;;;;;;;;;;5057861;28;20438;-75
2023/07/09 06:55:49;;;;;;;6.32;4.50;;;;;;;;;;5052116;28;20045;-75
2023/07/09 06:58:18;;;;;;;6.93;4.57;;;;;;;;;;5042796;28;20571;-75
2023/07/09 07:00:45;;;;;;;8.70;4.63;;;;;;;;;;5051136;28;20042;-76
2023/07/09 07:03:10;;;;;;;5.20;4.50;;;;;;;;;;5055313;28;20060;-75
2023/07/09 07:05:36;;;;;;;7.97;4.18;;;;;;;;;;5032601;28;20030;-73
2023/07/09 07:08:03;;;;;;;10.75;4.88;;;;;;;;;;5018765;28;20029;-74
2023/07/09 07:10:29;;;;;;;7.35;5.47;;;;;;;;;;5055216;28;20049;-73
2023/07/09 07:12:55;;;;;;;8.65;5.05;;;;;;;;;;5056101;28;20462;-74
2023/07/09 07:15:21;;;;;;;7.95;4.60;;;;;;;;;;5052233;28;20057;-75
2023/07/09 07:17:47;;;;;;;6.63;4.88;;;;;;;;;;5036219;28;20098;-74
2023/07/09 07:20:15;;;;;;;7.88;4.68;;;;;;;;;;5032579;28;20099;-75
2023/07/09 07:22:40;;;;;;;8.15;5.63;;;;;;;;;;5055104;28;20025;-74
2023/07/09 07:25:07;;;;;;;5.80;4.60;;;;;;;;;;5037446;28;20097;-75
2023/07/09 07:27:33;;;;;;;8.38;4.95;;;;;;;;;;5036291;28;20059;-74
2023/07/09 07:29:58;;;;;;;7.53;4.80;;;;;;;;;;5054101;28;20056;-74
2023/07/09 07:32:24;;;;;;;7.22;5.20;;;;;;;;;;5038391;28;20083;-74
2023/07/09 07:34:50;;;;;;;9.23;5.22;;;;;;;;;;5049913;28;20033;-74
2023/07/09 07:37:22;;;;;;;8.80;5.65;;;;;;;;;;5065316;28;20456;-75
2023/07/09 07:39:48;;;;;;;8.68;5.13;;;;;;;;;;5031456;28;20120;-75
2023/07/09 07:42:13;;;;;;;7.75;5.32;;;;;;;;;;5028205;28;20048;-74
2023/07/09 07:44:39;;;;;;;9.70;5.50;;;;;;;;;;5015242;28;20025;-75
2023/07/09 07:47:05;;;;;;;7.40;4.80;;;;;;;;;;5055698;28;20048;-74
2023/07/09 07:49:31;;;;;;;11.00;5.07;;;;;;;;;;5043991;28;20033;-74
2023/07/09 07:51:56;;;;;;;8.07;5.15;;;;;;;;;;5053600;28;20123;-74
2023/07/09 07:54:22;;;;;;;10.02;6.00;;;;;;;;;;5059870;28;20071;-74
2023/07/09 07:56:47;;;;;;;7.68;5.13;;;;;;;;;;5045305;28;20040;-74
2023/07/09 07:59:14;;;;;;;10.10;5.50;;;;;;;;;;5055341;28;20034;-75
2023/07/09 08:01:39;;;;;;;5.82;4.88;;;;;;;;;;5054113;28;20491;-74
2023/07/09 08:04:05;;;;;;;7.85;5.63;;;;;;;;;;5042302;28;20052;-73
2023/07/09 08:06:31;;;;;;;11.38;5.70;;;;;;;;;;5049164;28;20048;-74
2023/07/09 08:08:57;;;;;;;7.72;5.00;;;;;;;;;;5033451;28;20114;-75
2023/07/09 08:11:23;;;;;;;8.48;5.35;;;;;;;;;;5033926;28;20190;-73
2023/07/09 08:13:49;;;;;;;10.45;5.28;;;;;;;;;;5055387;28;20467;-74
2023/07/09 08:16:14;;;;;;;11.10;5.22;;;;;;;;;;5024272;28;20132;-75
2023/07/09 08:18:40;;;;;;;6.50;5.00;;;;;;;;;;5051067;28;20020;-73
2023/07/09 08:21:05;;;;;;;5.80;4.93;;;;;;;;;;5054109;28;20033;-74
2023/07/09 08:23:30;;;;;;;5.43;4.78;;;;;;;;;;5042556;28;20021;-74
2023/07/09 08:25:58;;;;;;;9.50;5.45;;;;;;;;;;5021808;28;20138;-74
2023/07/09 08:28:24;;;;;;;6.95;4.43;;;;;;;;;;5044256;28;20048;-73
2023/07/09 08:30:53;;;;;;;11.15;4.97;;;;;;;;;;5059602;28;20033;-73
2023/07/09 08:33:19;;;;;;;11.85;5.05;;;;;;;;;;5052493;28;20037;-74
2023/07/09 08:35:44;;;;;;;8.05;4.50;;;;;;;;;;5018614;28;20049;-73
2023/07/09 08:38:09;;;;;;;13.05;4.65;;;;;;;;;;5023557;28;20475;-73
2023/07/09 08:40:41;;;;;;;5.50;4.97;;;;;;;;;;5045876;28;20037;-74
2023/07/09 08:43:14;;;;;;;;;;;;;;;;;;5058289;28;20032;-73
2023/07/09 08:45:54;;;;;;;15.82;4.85;;;;;;;;;;5040539;28;20406;-75
2023/07/09 08:48:47;;;;;;;10.40;4.72;;;;;;;;;;5057527;28;20032;-74
2023/07/09 08:51:34;;;;;;;10.10;4.90;;;;;;;;;;5034657;28;20048;-75
2023/07/09 08:54:00;;;;;;;9.90;5.07;;;;;;;;;;5049676;28;20554;-73
2023/07/09 08:56:32;;;;;;;9.48;4.95;;;;;;;;;;5042979;28;20115;-76
2023/07/09 08:59:01;;;;;;;5.53;4.75;;;;;;;;;;5051412;28;20085;-76
2023/07/09 09:01:50;;;;;;;8.07;4.47;;;;;;;;;;5043481;28;20052;-74
2023/07/09 09:04:23;;;;;;;10.13;5.28;;;;;;;;;;5046644;28;20033;-75
2023/07/09 09:06:57;;;;;;;5.57;4.93;;;;;;;;;;5038364;28;20044;-73
2023/07/09 09:09:47;;;;;;;7.93;4.95;;;;;;;;;;5040387;28;20120;-74
2023/07/09 09:12:21;;;;;;;6.75;4.82;;;;;;;;;;5020220;28;20050;-74
2023/07/09 09:15:12;;;;;;;6.90;4.57;;;;;;;;;;5052366;28;20039;-73
2023/07/09 09:17:39;;;;;;;15.35;4.93;;;;;;;;;;4997571;28;20054;-75
2023/07/09 09:20:10;;;;;;;5.07;4.68;;;;;;;;;;5015032;28;20091;-75
2023/07/09 09:23:08;;;;;;;12.25;4.82;;;;;;;;;;5012042;28;20032;-75
2023/07/09 09:25:37;;;;;;;9.18;4.70;;;;;;;;;;4998904;28;20042;-74
2023/07/09 09:28:03;;;;;;;9.63;4.75;;;;;;;;;;5019486;28;20037;-76
2023/07/09 09:30:29;;;;;;;7.95;4.60;;;;;;;;;;5015042;28;20563;-75
2023/07/09 09:33:02;;;;;;;8.60;4.95;;;;;;;;;;5019845;28;20037;-74
2023/07/09 09:35:31;;;;;;;7.53;4.95;;;;;;;;;;5010494;28;20049;-75
2023/07/09 09:37:58;;;;;;;11.45;4.88;;;;;;;;;;5020207;28;20059;-74
2023/07/09 09:40:26;;;;;;;10.38;5.15;;;;;;;;;;5017844;28;20593;-75
2023/07/09 09:42:54;;;;;;;10.38;5.60;;;;;;;;;;5011535;28;20026;-74
2023/07/09 09:45:33;;;;;;;9.65;5.10;;;;;;;;;;5015210;28;20566;-75
2023/07/09 09:48:01;;;;;;;7.18;4.68;;;;;;;;;;5008497;28;20088;-74
2023/07/09 09:50:32;;;;;;;8.93;4.90;;;;;;;;;;5012962;28;20684;-73
2023/07/09 09:52:59;;;;;;;9.50;5.07;;;;;;;;;;5023173;28;20049;-74
2023/07/09 09:55:29;;;;;;;10.30;5.15;;;;;;;;;;5013267;28;20041;-73
2023/07/09 09:57:56;;;;;;;8.75;5.40;;;;;;;;;;5008160;28;20037;-74
2023/07/09 10:00:25;;;;;;;9.07;5.65;;;;;;;;;;5016882;28;20052;-74
2023/07/09 10:02:57;;;;;;;7.63;4.90;;;;;;;;;;5012917;28;20809;-74
2023/07/09 10:05:31;;;;;;;13.02;5.38;;;;;;;;;;5015503;28;20034;-74
2023/07/09 10:08:07;;;;;;;7.97;5.07;;;;;;;;;;5011868;28;20052;-74
2023/07/09 10:10:33;;;;;;;10.25;5.05;;;;;;;;;;5016593;28;20046;-74
2023/07/09 10:13:07;;;;;;;6.95;5.20;;;;;;;;;;5014167;28;20026;-73
2023/07/09 10:15:47;;;;;;;8.88;5.25;;;;;;;;;;5015499;28;20049;-75
2023/07/09 10:18:34;;;;;;;6.75;5.15;;;;;;;;;;5042684;28;20037;-74
2023/07/09 10:21:10;;;;;;;7.80;5.50;;;;;;;;;;5049500;28;20069;-74
2023/07/09 10:24:05;;;;;;;8.63;5.43;;;;;;;;;;5052235;28;20040;-73
2023/07/09 10:26:34;;;;;;;12.55;5.03;;;;;;;;;;5030226;28;20041;-74
2023/07/09 10:29:15;;;;;;;6.00;5.40;;;;;;;;;;5049444;28;20490;-73
2023/07/09 10:32:00;;;;;;;9.00;5.30;;;;;;;;;;5058820;28;20067;-73
2023/07/09 10:34:44;;;;;;;8.60;4.72;;;;;;;;;;5054801;28;20441;-74
2023/07/09 10:37:22;;;;;;;10.98;5.22;;;;;;;;;;5051406;28;20049;-73
2023/07/09 10:39:50;;;;;;;8.65;4.90;;;;;;;;;;5032282;28;20067;-74
2023/07/09 10:42:34;;;;;;;12.43;5.35;;;;;;;;;;5051694;28;20173;-73
2023/07/09 10:45:10;;;;;;;8.45;5.18;;;;;;;;;;5053319;28;20020;-72
2023/07/09 10:47:43;;;;;;;11.32;5.25;;;;;;;;;;5046480;28;20755;-72
2023/07/09 10:50:17;;;;;;;7.45;4.95;;;;;;;;;;5052463;28;20032;-73
2023/07/09 10:52:46;;;;;;;8.88;5.10;;;;;;;;;;5050783;28;20032;-72
2023/07/09 10:55:30;;;;;;;7.97;5.30;;;;;;;;;;5054908;28;20468;-72
2023/07/09 10:58:02;;;;;;;7.18;5.45;;;;;;;;;;5033017;28;20124;-71
2023/07/09 11:00:37;;;;;;;12.10;4.90;;;;;;;;;;5054440;28;20048;-72
2023/07/09 11:03:27;;;;;;;11.27;5.63;;;;;;;;;;5052584;28;20029;-72
2023/07/09 11:05:53;;;;;;;16.73;5.40;;;;;;;;;;5048579;28;20112;-71
2023/07/09 11:08:28;;;;;;;7.53;5.30;;;;;;;;;;5052368;28;20078;-70
2023/07/09 11:11:02;;;;;;;7.00;4.80;;;;;;;;;;5014601;28;20134;-71
2023/07/09 11:13:37;;;;;;;9.48;6.32;;;;;;;;;;5033233;28;20459;-70
2023/07/09 11:16:06;;;;;;;8.55;6.07;;;;;;;;;;5048890;28;20706;-72
2023/07/09 11:18:34;;;;;;;10.00;5.82;;;;;;;;;;5043351;28;20052;-72
2023/07/09 11:21:17;;;;;;;10.05;5.32;;;;;;;;;;5054375;28;20036;-72
2023/07/09 11:23:48;;;;;;;9.63;5.13;;;;;;;;;;5010861;28;20493;-71
2023/07/09 11:26:23;;;;;;;6.53;4.78;;;;;;;;;;5049788;28;20120;-71
2023/07/09 11:28:53;;;;;;;7.45;4.80;;;;;;;;;;5046175;28;20029;-72
2023/07/09 11:31:29;;;;;;;6.35;5.10;;;;;;;;;;5054112;28;20068;-70
2023/07/09 11:34:07;;;;;;;8.82;4.40;;;;;;;;;;5053344;28;20025;-71
2023/07/09 11:36:34;;;;;;;7.25;5.38;;;;;;;;;;5048267;28;20148;-72
2023/07/09 11:39:01;;;;;;;9.65;5.07;;;;;;;;;;5054307;28;20043;-71
2023/07/09 11:41:27;;;;;;;6.30;4.28;;;;;;;;;;5040653;28;20124;-71
2023/07/09 11:44:00;;;;;;;9.40;5.10;;;;;;;;;;5047596;28;20060;-71
2023/07/09 11:46:27;;;;;;;8.90;5.22;;;;;;;;;;5036570;28;20052;-73
2023/07/09 11:48:57;;;;;;;8.57;5.07;;;;;;;;;;5039064;28;20079;-72
2023/07/09 11:51:36;;;;;;;5.63;4.77;;;;;;;;;;5047819;28;20072;-71
2023/07/09 11:54:03;;;;;;;7.57;4.40;;;;;;;;;;5040379;28;20033;-72
2023/07/09 11:56:29;;;;;;;6.88;4.57;;;;;;;;;;5037018;28;20049;-72
2023/07/09 11:58:56;;;;;;;14.13;5.10;;;;;;;;;;5042759;28;20033;-73
2023/07/09 12:01:28;;;;;;;7.00;4.85;;;;;;;;;;5047630;28;20033;-70
2023/07/09 12:03:56;;;;;;;9.15;5.07;;;;;;;;;;5036781;28;20203;-73
2023/07/09 12:06:27;;;;;;;7.00;5.18;;;;;;;;;;5046122;28;20060;-72
2023/07/09 12:08:53;;;;;;;8.80;4.32;;;;;;;;;;5044398;28;20032;-73
2023/07/09 12:11:30;;;;;;;6.50;4.80;;;;;;;;;;5052819;28;20051;-72
2023/07/09 12:14:04;;;;;;;7.07;4.75;;;;;;;;;;5041845;28;20670;-72
2023/07/09 12:16:29;;;;;;;8.10;4.43;;;;;;;;;;5053488;28;20049;-72
2023/07/09 12:18:55;;;;;;;6.75;5.38;;;;;;;;;;5031648;28;20041;-71
2023/07/09 12:21:22;;;;;;;12.50;4.65;;;;;;;;;;5051843;28;20051;-72
2023/07/09 12:23:49;;;;;;;11.70;5.15;;;;;;;;;;5056616;28;20051;-71
2023/07/09 12:26:18;;;;;;;7.90;4.88;;;;;;;;;;5051792;28;20048;-71
2023/07/09 12:28:50;;;;;;;6.22;4.45;;;;;;;;;;5041665;28;20064;-71
2023/07/09 12:31:16;;;;;;;6.85;4.50;;;;;;;;;;5055450;28;20041;-71
2023/07/09 12:33:49;;;;;;;8.35;4.60;;;;;;;;;;5050206;28;20146;-71
2023/07/09 12:36:16;;;;;;;7.22;4.47;;;;;;;;;;5054934;28;20036;-73
2023/07/09 12:38:44;;;;;;;10.98;4.45;;;;;;;;;;5055278;28;20025;-71
2023/07/09 12:41:20;;;;;;;6.13;4.40;;;;;;;;;;5037802;28;20037;-72
2023/07/09 12:43:46;;;;;;;7.28;4.78;;;;;;;;;;5049369;28;20036;-72
2023/07/09 12:46:12;;;;;;;4.68;4.22;;;;;;;;;;5034876;28;20475;-72
2023/07/09 12:48:37;;;;;;;5.93;4.40;;;;;;;;;;5022270;28;20483;-71
2023/07/09 12:51:07;;;;;;;6.38;4.15;;;;;;;;;;5055652;28;20181;-70
2023/07/09 12:53:33;;;;;;;8.82;4.75;;;;;;;;;;5036076;28;20084;-72
2023/07/09 12:56:01;;;;;;;7.68;4.90;;;;;;;;;;5054991;28;20075;-71
2023/07/09 12:58:37;;;;;;;6.10;4.43;;;;;;;;;;5049016;28;20108;-73
2023/07/09 13:01:16;;;;;;;6.32;4.05;;;;;;;;;;5039203;28;20107;-71
2023/07/09 13:03:51;;;;;;;5.85;4.30;;;;;;;;;;5049668;28;20070;-71
2023/07/09 13:06:33;;;;;;;10.48;4.50;;;;;;;;;;5048791;28;20123;-71
2023/07/09 13:08:59;;;;;;;5.85;4.68;;;;;;;;;;5025463;28;20036;-71
2023/07/09 13:11:33;;;;;;;5.97;5.00;;;;;;;;;;5054958;28;20037;-71
2023/07/09 13:14:04;;;;;;;12.25;4.70;;;;;;;;;;5055971;28;20058;-72
2023/07/09 13:16:29;;;;;;;5.75;4.55;;;;;;;;;;5053227;28;20098;-71
2023/07/09 13:18:55;;;;;;;13.73;4.43;;;;;;;;;;5046014;28;20033;-71
2023/07/09 13:21:22;;;;;;;6.50;4.57;;;;;;;;;;5040433;28;20039;-71
2023/07/09 13:23:48;;;;;;;7.45;4.40;;;;;;;;;;5037130;28;20029;-72
2023/07/09 13:26:15;;;;;;;5.43;4.55;;;;;;;;;;5035410;28;20037;-72
2023/07/09 13:28:42;;;;;;;6.35;4.68;;;;;;;;;;5039141;28;20036;-71
2023/07/09 13:31:12;;;;;;;7.70;4.88;;;;;;;;;;5039749;28;20129;-71
2023/07/09 13:33:38;;;;;;;5.75;5.03;;;;;;;;;;5050934;28;20025;-71
2023/07/09 13:36:06;;;;;;;6.03;4.43;;;;;;;;;;5027430;28;20038;-73
2023/07/09 13:38:32;;;;;;;8.73;4.70;;;;;;;;;;5048730;28;20037;-70
2023/07/09 13:41:10;;;;;;;6.65;4.90;;;;;;;;;;5039177;28;20037;-72
2023/07/09 13:43:37;;;;;;;6.47;4.10;;;;;;;;;;5025437;28;20045;-71
2023/07/09 13:46:03;;;;;;;6.03;4.05;;;;;;;;;;5054386;28;20029;-71
2023/07/09 13:48:31;;;;;;;5.80;4.00;;;;;;;;;;5055527;28;20063;-71
2023/07/09 13:50:57;;;;;;;8.93;4.68;;;;;;;;;;5033333;28;20043;-73
2023/07/09 13:53:26;;;;;;;7.25;4.13;;;;;;;;;;5047805;28;20068;-72
2023/07/09 13:55:53;;;;;;;4.65;3.95;;;;;;;;;;5037965;28;20033;-71
2023/07/09 13:58:20;;;;;;;6.95;3.80;;;;;;;;;;5041626;28;20541;-70
2023/07/09 14:00:47;;;;;;;5.82;4.82;;;;;;;;;;5051589;28;20498;-75
2023/07/09 14:03:22;;;;;;;7.93;4.40;;;;;;;;;;5044887;28;20021;-71
2023/07/09 14:05:49;;;;;;;13.35;3.92;;;;;;;;;;5050746;28;20037;-72
2023/07/09 14:08:14;;;;;;;9.10;4.45;;;;;;;;;;5044296;28;20032;-73
2023/07/09 14:10:40;;;;;;;6.47;4.03;;;;;;;;;;5041901;28;20029;-72
2023/07/09 14:13:14;;;;;;;6.10;4.40;;;;;;;;;;5058930;28;20048;-70
2023/07/09 14:15:40;;;;;;;8.80;4.43;;;;;;;;;;5047712;28;20084;-72
2023/07/09 14:18:11;;;;;;;11.00;5.00;;;;;;;;;;5034168;28;20081;-72
2023/07/09 14:20:36;;;;;;;;;;;;;;;;;;5028738;28;20040;-71
2023/07/09 14:23:02;;;;;;;6.82;3.95;;;;;;;;;;5031942;28;20389;-73
2023/07/09 14:25:28;;;;;;;4.70;3.92;;;;;;;;;;5054550;28;20033;-74
2023/07/09 14:27:54;;;;;;;8.60;4.32;;;;;;;;;;5029690;28;20035;-73
2023/07/09 14:30:23;;;;;;;7.72;4.70;;;;;;;;;;5055232;28;20037;-75
2023/07/09 14:32:50;;;;;;;13.20;5.00;;;;;;;;;;5054619;28;20112;-72
2023/07/09 14:35:23;;;;;;;8.80;4.72;;;;;;;;;;5033768;28;20388;-73
2023/07/09 14:37:51;;;;;;;7.80;4.43;;;;;;;;;;5038615;28;20108;-74
2023/07/09 14:40:19;;;;;;;10.23;4.68;;;;;;;;;;5050087;28;20041;-74
2023/07/09 14:42:46;;;;;;;7.07;4.00;;;;;;;;;;5034681;28;20061;-74
2023/07/09 14:45:19;;;;;;;7.65;3.80;;;;;;;;;;5036926;28;20064;-73
2023/07/09 14:47:44;;;;;;;5.97;3.90;;;;;;;;;;5055483;28;20112;-75
2023/07/09 14:50:10;;;;;;;5.18;4.07;;;;;;;;;;5027296;28;20106;-73